sensor_id;sensor_type;location;lat;lon;timestamp;temperature;humidity
8888;DHT22;4480;52.370;9.748;2023-06-10T00:00:49;17.50;57.20
8888;DHT22;4480;52.370;9.748;2023-06-10T00:03:17;17.40;57.30
8888;DHT22;4480;52.370;9.748;2023-06-10T00:05:44;17.40;57.60
8888;DHT22;4480;52.370;9.748;2023-06-10T00:08:11;17.30;58.00
8888;DHT22;4480;52.370;9.748;2023-06-10T00:10:38;17.30;58.30
8888;DHT22;4480;52.370;9.748;2023-06-10T00:13:06;17.20;58.60
8888;DHT22;4480;52.370;9.748;2023-06-10T00:15:35;17.20;58.90
8888;DHT22;4480;52.370;9.748;2023-06-10T00:18:02;17.10;59.60
8888;DHT22;4480;52.370;9.748;2023-06-10T00:20:29;17.00;59.30
8888;DHT22;4480;52.370;9.748;2023-06-10T00:22:57;17.00;59.60
8888;DHT22;4480;52.370;9.748;2023-06-10T00:25:25;16.90;59.80
8888;DHT22;4480;52.370;9.748;2023-06-10T00:27:52;16.80;60.00
8888;DHT22;4480;52.370;9.748;2023-06-10T00:30:19;16.80;60.30
8888;DHT22;4480;52.370;9.748;2023-06-10T00:32:48;16.70;60.70
8888;DHT22;4480;52.370;9.748;2023-06-10T00:35:14;16.60;61.00
8888;DHT22;4480;52.370;9.748;2023-06-10T00:37:41;16.60;61.50
8888;DHT22;4480;52.370;9.748;2023-06-10T00:40:09;16.50;62.20
8888;DHT22;4480;52.370;9.748;2023-06-10T00:42:36;16.50;63.00
8888;DHT22;4480;52.370;9.748;2023-06-10T00:45:03;16.40;63.40
8888;DHT22;4480;52.370;9.748;2023-06-10T00:47:31;16.30;64.10
8888;DHT22;4480;52.370;9.748;2023-06-10T00:49:59;16.30;64.70
8888;DHT22;4480;52.370;9.748;2023-06-10T00:52:28;16.20;65.40
8888;DHT22;4480;52.370;9.748;2023-06-10T00:54:56;16.20;66.40
8888;DHT22;4480;52.370;9.748;2023-06-10T00:57:22;16.10;67.40
8888;DHT22;4480;52.370;9.748;2023-06-10T00:59:49;16.00;68.50
8888;DHT22;4480;52.370;9.748;2023-06-10T01:02:16;15.90;69.90
8888;DHT22;4480;52.370;9.748;2023-06-10T01:04:43;15.90;71.30
8888;DHT22;4480;52.370;9.748;2023-06-10T01:07:20;15.80;72.90
8888;DHT22;4480;52.370;9.748;2023-06-10T01:09:54;15.80;74.80
8888;DHT22;4480;52.370;9.748;2023-06-10T01:12:29;15.70;77.40
8888;DHT22;4480;52.370;9.748;2023-06-10T01:14:58;15.60;79.80
8888;DHT22;4480;52.370;9.748;2023-06-10T01:17:26;15.60;81.80
8888;DHT22;4480;52.370;9.748;2023-06-10T01:19:54;15.60;83.70
8888;DHT22;4480;52.370;9.748;2023-06-10T01:22:24;15.50;85.90
8888;DHT22;4480;52.370;9.748;2023-06-10T01:24:52;15.40;88.30
8888;DHT22;4480;52.370;9.748;2023-06-10T01:27:21;15.40;90.30
8888;DHT22;4480;52.370;9.748;2023-06-10T01:29:54;15.30;91.60
8888;DHT22;4480;52.370;9.748;2023-06-10T01:32:31;15.30;92.30
8888;DHT22;4480;52.370;9.748;2023-06-10T01:35:00;15.20;93.40
8888;DHT22;4480;52.370;9.748;2023-06-10T01:37:31;15.10;94.40
8888;DHT22;4480;52.370;9.748;2023-06-10T01:39:59;15.10;95.50
8888;DHT22;4480;52.370;9.748;2023-06-10T01:42:27;15.00;96.50
8888;DHT22;4480;52.370;9.748;2023-06-10T01:44:54;15.00;97.50
8888;DHT22;4480;52.370;9.748;2023-06-10T01:47:21;14.90;98.30
8888;DHT22;4480;52.370;9.748;2023-06-10T01:49:48;14.80;99.10
8888;DHT22;4480;52.370;9.748;2023-06-10T01:52:15;14.70;99.90
8888;DHT22;4480;52.370;9.748;2023-06-10T01:54:43;14.70;99.90
8888;DHT22;4480;52.370;9.748;2023-06-10T01:57:10;14.60;99.90
8888;DHT22;4480;52.370;9.748;2023-06-10T01:59:37;14.50;99.90
8888;DHT22;4480;52.370;9.748;2023-06-10T02:02:04;14.50;99.90
8888;DHT22;4480;52.370;9.748;2023-06-10T02:04:31;14.50;99.90
8888;DHT22;4480;52.370;9.748;2023-06-10T02:06:58;14.40;99.90
8888;DHT22;4480;52.370;9.748;2023-06-10T02:09:25;14.30;99.90
8888;DHT22;4480;52.370;9.748;2023-06-10T02:11:53;14.30;99.90
8888;DHT22;4480;52.370;9.748;2023-06-10T02:14:20;14.30;99.90
8888;DHT22;4480;52.370;9.748;2023-06-10T02:16:46;14.20;99.90
8888;DHT22;4480;52.370;9.748;2023-06-10T02:19:13;14.20;99.90
8888;DHT22;4480;52.370;9.748;2023-06-10T02:21:40;14.10;99.90
8888;DHT22;4480;52.370;9.748;2023-06-10T02:24:07;14.10;99.90
8888;DHT22;4480;52.370;9.748;2023-06-10T02:26:34;14.00;99.90
8888;DHT22;4480;52.370;9.748;2023-06-10T02:29:02;14.00;99.90
8888;DHT22;4480;52.370;9.748;2023-06-10T02:31:29;13.90;99.90
8888;DHT22;4480;52.370;9.748;2023-06-10T02:33:56;13.90;99.90
8888;DHT22;4480;52.370;9.748;2023-06-10T02:36:22;13.90;99.90
8888;DHT22;4480;52.370;9.748;2023-06-10T02:38:50;13.90;99.90
8888;DHT22;4480;52.370;9.748;2023-06-10T02:41:16;13.80;99.90
8888;DHT22;4480;52.370;9.748;2023-06-10T02:43:43;13.80;99.90
8888;DHT22;4480;52.370;9.748;2023-06-10T02:46:11;13.70;99.90
8888;DHT22;4480;52.370;9.748;2023-06-10T02:48:41;13.70;99.90
8888;DHT22;4480;52.370;9.748;2023-06-10T02:51:09;13.60;99.90
8888;DHT22;4480;52.370;9.748;2023-06-10T02:53:36;13.60;99.90
8888;DHT22;4480;52.370;9.748;2023-06-10T02:56:03;13.60;99.90
8888;DHT22;4480;52.370;9.748;2023-06-10T02:58:30;13.50;99.90
8888;DHT22;4480;52.370;9.748;2023-06-10T03:00:57;13.50;99.90
8888;DHT22;4480;52.370;9.748;2023-06-10T03:03:26;13.40;99.90
8888;DHT22;4480;52.370;9.748;2023-06-10T03:05:53;13.40;99.90
8888;DHT22;4480;52.370;9.748;2023-06-10T03:08:19;13.40;99.90
8888;DHT22;4480;52.370;9.748;2023-06-10T03:10:46;13.30;99.90
8888;DHT22;4480;52.370;9.748;2023-06-10T03:13:13;13.30;99.90
8888;DHT22;4480;52.370;9.748;2023-06-10T03:15:41;13.30;99.90
8888;DHT22;4480;52.370;9.748;2023-06-10T03:18:07;13.20;99.90
8888;DHT22;4480;52.370;9.748;2023-06-10T03:20:35;13.20;99.90
8888;DHT22;4480;52.370;9.748;2023-06-10T03:23:03;13.20;99.90
8888;DHT22;4480;52.370;9.748;2023-06-10T03:25:30;13.20;99.90
8888;DHT22;4480;52.370;9.748;2023-06-10T03:27:57;13.20;99.90
8888;DHT22;4480;52.370;9.748;2023-06-10T03:30:24;13.20;99.90
8888;DHT22;4480;52.370;9.748;2023-06-10T03:32:50;13.10;99.90
8888;DHT22;4480;52.370;9.748;2023-06-10T03:35:18;13.10;99.90
8888;DHT22;4480;52.370;9.748;2023-06-10T03:37:46;13.10;99.90
8888;DHT22;4480;52.370;9.748;2023-06-10T03:40:12;13.10;99.90
8888;DHT22;4480;52.370;9.748;2023-06-10T03:42:39;13.10;99.90
8888;DHT22;4480;52.370;9.748;2023-06-10T03:45:07;13.10;99.90
8888;DHT22;4480;52.370;9.748;2023-06-10T03:47:34;13.10;99.90
8888;DHT22;4480;52.370;9.748;2023-06-10T03:50:02;13.10;99.90
8888;DHT22;4480;52.370;9.748;2023-06-10T03:52:29;13.20;99.90
8888;DHT22;4480;52.370;9.748;2023-06-10T03:54:58;13.30;99.90
8888;DHT22;4480;52.370;9.748;2023-06-10T03:57:24;13.30;99.90
8888;DHT22;4480;52.370;9.748;2023-06-10T03:59:51;13.40;99.90
8888;DHT22;4480;52.370;9.748;2023-06-10T04:02:18;13.40;99.90
8888;DHT22;4480;52.370;9.748;2023-06-10T04:04:45;13.40;99.90
8888;DHT22;4480;52.370;9.748;2023-06-10T04:07:11;13.40;99.90
8888;DHT22;4480;52.370;9.748;2023-06-10T04:11:49;13.40;99.90
8888;DHT22;4480;52.370;9.748;2023-06-10T04:14:16;13.40;99.90
8888;DHT22;4480;52.370;9.748;2023-06-10T04:16:43;13.50;99.90
8888;DHT22;4480;52.370;9.748;2023-06-10T04:19:10;13.50;99.90
8888;DHT22;4480;52.370;9.748;2023-06-10T04:21:37;13.50;99.90
8888;DHT22;4480;52.370;9.748;2023-06-10T04:24:04;13.60;99.90
8888;DHT22;4480;52.370;9.748;2023-06-10T04:26:31;13.70;99.90
8888;DHT22;4480;52.370;9.748;2023-06-10T04:29:00;13.90;99.90
8888;DHT22;4480;52.370;9.748;2023-06-10T04:31:27;14.30;99.90
8888;DHT22;4480;52.370;9.748;2023-06-10T04:33:54;14.60;99.90
8888;DHT22;4480;52.370;9.748;2023-06-10T04:36:21;14.90;99.90
8888;DHT22;4480;52.370;9.748;2023-06-10T04:38:47;15.10;99.90
8888;DHT22;4480;52.370;9.748;2023-06-10T04:41:14;15.30;99.90
8888;DHT22;4480;52.370;9.748;2023-06-10T04:43:41;15.40;99.90
8888;DHT22;4480;52.370;9.748;2023-06-10T04:46:09;15.40;99.90
8888;DHT22;4480;52.370;9.748;2023-06-10T04:48:36;15.30;99.90
8888;DHT22;4480;52.370;9.748;2023-06-10T04:51:03;15.50;99.90
8888;DHT22;4480;52.370;9.748;2023-06-10T04:53:30;15.50;99.90
8888;DHT22;4480;52.370;9.748;2023-06-10T04:55:57;15.50;99.90
8888;DHT22;4480;52.370;9.748;2023-06-10T04:58:24;15.40;99.90
8888;DHT22;4480;52.370;9.748;2023-06-10T05:00:51;15.40;99.90
8888;DHT22;4480;52.370;9.748;2023-06-10T05:03:19;15.50;99.90
8888;DHT22;4480;52.370;9.748;2023-06-10T05:05:46;15.60;99.90
8888;DHT22;4480;52.370;9.748;2023-06-10T05:08:12;15.60;99.90
8888;DHT22;4480;52.370;9.748;2023-06-10T05:10:39;15.60;99.90
8888;DHT22;4480;52.370;9.748;2023-06-10T05:13:06;15.90;99.90
8888;DHT22;4480;52.370;9.748;2023-06-10T05:15:33;16.20;99.90
8888;DHT22;4480;52.370;9.748;2023-06-10T05:17:59;16.50;99.90
8888;DHT22;4480;52.370;9.748;2023-06-10T05:20:29;16.70;99.90
8888;DHT22;4480;52.370;9.748;2023-06-10T05:22:56;16.90;99.90
8888;DHT22;4480;52.370;9.748;2023-06-10T05:25:25;17.20;99.90
8888;DHT22;4480;52.370;9.748;2023-06-10T05:27:51;17.30;99.90
8888;DHT22;4480;52.370;9.748;2023-06-10T05:30:18;17.10;99.90
8888;DHT22;4480;52.370;9.748;2023-06-10T05:32:45;16.80;99.90
8888;DHT22;4480;52.370;9.748;2023-06-10T05:35:12;16.60;99.90
8888;DHT22;4480;52.370;9.748;2023-06-10T05:37:40;16.50;99.90
8888;DHT22;4480;52.370;9.748;2023-06-10T05:40:08;16.50;99.90
8888;DHT22;4480;52.370;9.748;2023-06-10T05:42:35;16.80;99.90
8888;DHT22;4480;52.370;9.748;2023-06-10T05:45:02;17.00;99.90
8888;DHT22;4480;52.370;9.748;2023-06-10T05:47:29;17.10;99.90
8888;DHT22;4480;52.370;9.748;2023-06-10T05:49:56;17.20;99.90
8888;DHT22;4480;52.370;9.748;2023-06-10T05:52:23;17.20;99.90
8888;DHT22;4480;52.370;9.748;2023-06-10T05:54:51;17.30;99.90
8888;DHT22;4480;52.370;9.748;2023-06-10T05:57:19;17.50;99.90
8888;DHT22;4480;52.370;9.748;2023-06-10T05:59:46;17.60;99.40
8888;DHT22;4480;52.370;9.748;2023-06-10T06:02:13;17.50;98.80
8888;DHT22;4480;52.370;9.748;2023-06-10T06:04:40;17.60;99.10
8888;DHT22;4480;52.370;9.748;2023-06-10T06:07:06;17.70;98.80
8888;DHT22;4480;52.370;9.748;2023-06-10T06:09:33;17.80;98.10
8888;DHT22;4480;52.370;9.748;2023-06-10T06:12:01;17.70;97.60
8888;DHT22;4480;52.370;9.748;2023-06-10T06:14:31;17.60;98.30
8888;DHT22;4480;52.370;9.748;2023-06-10T06:16:58;17.60;98.80
8888;DHT22;4480;52.370;9.748;2023-06-10T06:19:25;17.80;98.60
8888;DHT22;4480;52.370;9.748;2023-06-10T06:21:52;17.90;98.10
8888;DHT22;4480;52.370;9.748;2023-06-10T06:24:18;18.00;97.50
8888;DHT22;4480;52.370;9.748;2023-06-10T06:26:45;18.10;96.50
8888;DHT22;4480;52.370;9.748;2023-06-10T06:29:13;18.20;96.10
8888;DHT22;4480;52.370;9.748;2023-06-10T06:31:40;18.20;95.50
8888;DHT22;4480;52.370;9.748;2023-06-10T06:34:07;18.30;95.20
8888;DHT22;4480;52.370;9.748;2023-06-10T06:36:34;18.30;94.20
8888;DHT22;4480;52.370;9.748;2023-06-10T06:39:00;18.30;93.70
8888;DHT22;4480;52.370;9.748;2023-06-10T06:41:27;18.20;93.60
8888;DHT22;4480;52.370;9.748;2023-06-10T06:43:54;18.10;93.30
8888;DHT22;4480;52.370;9.748;2023-06-10T06:46:23;17.90;93.70
8888;DHT22;4480;52.370;9.748;2023-06-10T06:48:49;17.90;94.00
8888;DHT22;4480;52.370;9.748;2023-06-10T06:51:16;17.90;93.90
8888;DHT22;4480;52.370;9.748;2023-06-10T06:53:43;17.90;93.80
8888;DHT22;4480;52.370;9.748;2023-06-10T06:56:11;18.00;93.50
8888;DHT22;4480;52.370;9.748;2023-06-10T06:58:38;17.90;93.40
8888;DHT22;4480;52.370;9.748;2023-06-10T07:01:04;17.90;94.00
8888;DHT22;4480;52.370;9.748;2023-06-10T07:03:33;17.90;94.00
8888;DHT22;4480;52.370;9.748;2023-06-10T07:05:59;17.90;94.10
8888;DHT22;4480;52.370;9.748;2023-06-10T07:08:26;17.90;94.30
8888;DHT22;4480;52.370;9.748;2023-06-10T07:10:53;18.00;94.10
8888;DHT22;4480;52.370;9.748;2023-06-10T07:13:20;18.10;93.80
8888;DHT22;4480;52.370;9.748;2023-06-10T07:15:47;18.20;93.80
8888;DHT22;4480;52.370;9.748;2023-06-10T07:18:15;18.30;93.60
8888;DHT22;4480;52.370;9.748;2023-06-10T07:20:43;18.50;93.40
8888;DHT22;4480;52.370;9.748;2023-06-10T07:23:10;18.60;92.60
8888;DHT22;4480;52.370;9.748;2023-06-10T07:25:37;18.70;92.60
8888;DHT22;4480;52.370;9.748;2023-06-10T07:28:03;18.80;92.00
8888;DHT22;4480;52.370;9.748;2023-06-10T07:30:30;19.00;91.60
8888;DHT22;4480;52.370;9.748;2023-06-10T07:32:57;19.10;91.30
8888;DHT22;4480;52.370;9.748;2023-06-10T07:35:24;19.10;90.70
8888;DHT22;4480;52.370;9.748;2023-06-10T07:37:52;19.20;90.50
8888;DHT22;4480;52.370;9.748;2023-06-10T07:40:19;19.20;90.50
8888;DHT22;4480;52.370;9.748;2023-06-10T07:42:46;19.20;90.10
8888;DHT22;4480;52.370;9.748;2023-06-10T07:45:13;19.40;89.90
8888;DHT22;4480;52.370;9.748;2023-06-10T07:47:40;19.50;88.40
8888;DHT22;4480;52.370;9.748;2023-06-10T07:50:07;19.50;87.60
8888;DHT22;4480;52.370;9.748;2023-06-10T07:52:34;19.50;87.20
8888;DHT22;4480;52.370;9.748;2023-06-10T07:55:03;19.50;86.60
8888;DHT22;4480;52.370;9.748;2023-06-10T07:57:31;19.60;85.90
8888;DHT22;4480;52.370;9.748;2023-06-10T08:00:00;19.60;85.30
8888;DHT22;4480;52.370;9.748;2023-06-10T08:02:29;19.60;84.80
8888;DHT22;4480;52.370;9.748;2023-06-10T08:04:56;19.70;84.40
8888;DHT22;4480;52.370;9.748;2023-06-10T08:07:23;19.80;84.00
8888;DHT22;4480;52.370;9.748;2023-06-10T08:09:51;19.90;83.30
8888;DHT22;4480;52.370;9.748;2023-06-10T08:12:19;20.10;82.90
8888;DHT22;4480;52.370;9.748;2023-06-10T08:14:46;20.20;80.90
8888;DHT22;4480;52.370;9.748;2023-06-10T08:17:12;20.30;80.30
8888;DHT22;4480;52.370;9.748;2023-06-10T08:19:39;20.40;79.70
8888;DHT22;4480;52.370;9.748;2023-06-10T08:22:06;20.50;78.80
8888;DHT22;4480;52.370;9.748;2023-06-10T08:24:33;20.60;77.60
8888;DHT22;4480;52.370;9.748;2023-06-10T08:27:00;20.70;76.60
8888;DHT22;4480;52.370;9.748;2023-06-10T08:29:28;20.80;75.00
8888;DHT22;4480;52.370;9.748;2023-06-10T08:31:56;20.90;74.50
8888;DHT22;4480;52.370;9.748;2023-06-10T08:34:23;21.00;74.00
8888;DHT22;4480;52.370;9.748;2023-06-10T08:36:50;21.10;73.30
8888;DHT22;4480;52.370;9.748;2023-06-10T08:39:21;21.20;72.90
8888;DHT22;4480;52.370;9.748;2023-06-10T08:41:56;21.30;72.40
8888;DHT22;4480;52.370;9.748;2023-06-10T08:44:29;21.40;72.30
8888;DHT22;4480;52.370;9.748;2023-06-10T08:46:59;21.50;70.70
8888;DHT22;4480;52.370;9.748;2023-06-10T08:49:27;21.60;69.70
8888;DHT22;4480;52.370;9.748;2023-06-10T08:51:59;21.70;69.90
8888;DHT22;4480;52.370;9.748;2023-06-10T08:54:30;21.80;68.50
8888;DHT22;4480;52.370;9.748;2023-06-10T08:56:59;21.80;67.40
8888;DHT22;4480;52.370;9.748;2023-06-10T08:59:26;22.00;66.80
8888;DHT22;4480;52.370;9.748;2023-06-10T09:01:54;22.10;65.90
8888;DHT22;4480;52.370;9.748;2023-06-10T09:04:22;22.30;65.10
8888;DHT22;4480;52.370;9.748;2023-06-10T09:06:51;22.40;64.40
8888;DHT22;4480;52.370;9.748;2023-06-10T09:09:19;22.60;63.80
8888;DHT22;4480;52.370;9.748;2023-06-10T09:11:46;22.80;63.10
8888;DHT22;4480;52.370;9.748;2023-06-10T09:14:13;22.90;62.30
8888;DHT22;4480;52.370;9.748;2023-06-10T09:16:42;23.10;61.40
8888;DHT22;4480;52.370;9.748;2023-06-10T09:19:11;23.20;59.90
8888;DHT22;4480;52.370;9.748;2023-06-10T09:21:38;23.40;59.10
8888;DHT22;4480;52.370;9.748;2023-06-10T09:24:05;23.50;58.40
8888;DHT22;4480;52.370;9.748;2023-06-10T09:26:32;23.60;57.60
8888;DHT22;4480;52.370;9.748;2023-06-10T09:29:03;23.70;57.00
8888;DHT22;4480;52.370;9.748;2023-06-10T09:31:30;23.80;56.10
8888;DHT22;4480;52.370;9.748;2023-06-10T09:34:05;23.90;55.60
8888;DHT22;4480;52.370;9.748;2023-06-10T09:36:35;24.10;55.30
8888;DHT22;4480;52.370;9.748;2023-06-10T09:39:02;24.20;54.60
8888;DHT22;4480;52.370;9.748;2023-06-10T09:41:32;24.30;54.30
8888;DHT22;4480;52.370;9.748;2023-06-10T09:44:00;24.30;54.20
8888;DHT22;4480;52.370;9.748;2023-06-10T09:46:31;24.40;54.00
8888;DHT22;4480;52.370;9.748;2023-06-10T09:48:58;24.40;53.80
8888;DHT22;4480;52.370;9.748;2023-06-10T09:51:25;24.50;53.70
8888;DHT22;4480;52.370;9.748;2023-06-10T09:53:54;24.50;53.60
8888;DHT22;4480;52.370;9.748;2023-06-10T09:56:21;24.60;53.40
8888;DHT22;4480;52.370;9.748;2023-06-10T09:58:49;24.80;53.10
8888;DHT22;4480;52.370;9.748;2023-06-10T10:01:19;24.90;53.00
8888;DHT22;4480;52.370;9.748;2023-06-10T10:03:47;25.00;52.90
8888;DHT22;4480;52.370;9.748;2023-06-10T10:06:15;25.00;52.60
8888;DHT22;4480;52.370;9.748;2023-06-10T10:08:42;25.10;52.80
8888;DHT22;4480;52.370;9.748;2023-06-10T10:11:11;25.30;52.70
8888;DHT22;4480;52.370;9.748;2023-06-10T10:13:39;25.50;52.30
8888;DHT22;4480;52.370;9.748;2023-06-10T10:16:09;25.60;51.70
8888;DHT22;4480;52.370;9.748;2023-06-10T10:18:39;25.60;51.40
8888;DHT22;4480;52.370;9.748;2023-06-10T10:21:12;25.70;50.70
8888;DHT22;4480;52.370;9.748;2023-06-10T10:23:44;25.70;50.20
8888;DHT22;4480;52.370;9.748;2023-06-10T10:26:17;25.80;50.20
8888;DHT22;4480;52.370;9.748;2023-06-10T10:28:48;25.90;50.20
8888;DHT22;4480;52.370;9.748;2023-06-10T10:31:19;26.20;49.90
8888;DHT22;4480;52.370;9.748;2023-06-10T10:33:54;26.30;49.30
8888;DHT22;4480;52.370;9.748;2023-06-10T10:36:22;26.40;49.20
8888;DHT22;4480;52.370;9.748;2023-06-10T10:38:49;26.40;49.10
8888;DHT22;4480;52.370;9.748;2023-06-10T10:41:18;26.40;49.30
8888;DHT22;4480;52.370;9.748;2023-06-10T10:43:46;26.40;49.50
8888;DHT22;4480;52.370;9.748;2023-06-10T10:46:15;26.50;49.70
8888;DHT22;4480;52.370;9.748;2023-06-10T10:48:43;26.60;49.70
8888;DHT22;4480;52.370;9.748;2023-06-10T10:51:11;26.60;49.90
8888;DHT22;4480;52.370;9.748;2023-06-10T10:53:38;26.60;50.10
8888;DHT22;4480;52.370;9.748;2023-06-10T10:56:06;26.70;50.20
8888;DHT22;4480;52.370;9.748;2023-06-10T10:58:34;26.80;50.10
8888;DHT22;4480;52.370;9.748;2023-06-10T11:01:10;26.80;50.00
8888;DHT22;4480;52.370;9.748;2023-06-10T11:03:43;26.80;50.80
8888;DHT22;4480;52.370;9.748;2023-06-10T11:06:12;26.90;50.40
8888;DHT22;4480;52.370;9.748;2023-06-10T11:08:46;27.00;50.50
8888;DHT22;4480;52.370;9.748;2023-06-10T11:11:20;27.20;50.40
8888;DHT22;4480;52.370;9.748;2023-06-10T11:14:07;27.30;50.20
8888;DHT22;4480;52.370;9.748;2023-06-10T11:16:40;27.30;50.10
8888;DHT22;4480;52.370;9.748;2023-06-10T11:19:08;27.40;50.10
8888;DHT22;4480;52.370;9.748;2023-06-10T11:24:19;27.70;49.90
8888;DHT22;4480;52.370;9.748;2023-06-10T11:26:46;27.80;49.30
8888;DHT22;4480;52.370;9.748;2023-06-10T11:29:15;27.80;49.40
8888;DHT22;4480;52.370;9.748;2023-06-10T11:31:45;27.70;49.60
8888;DHT22;4480;52.370;9.748;2023-06-10T11:34:13;27.60;49.70
8888;DHT22;4480;52.370;9.748;2023-06-10T11:36:41;27.70;49.80
8888;DHT22;4480;52.370;9.748;2023-06-10T11:39:11;27.80;49.50
8888;DHT22;4480;52.370;9.748;2023-06-10T11:41:39;27.90;49.10
8888;DHT22;4480;52.370;9.748;2023-06-10T11:44:09;27.90;49.10
8888;DHT22;4480;52.370;9.748;2023-06-10T11:46:38;27.90;48.60
8888;DHT22;4480;52.370;9.748;2023-06-10T11:49:05;28.00;48.40
8888;DHT22;4480;52.370;9.748;2023-06-10T11:51:34;28.20;48.00
8888;DHT22;4480;52.370;9.748;2023-06-10T11:54:02;28.40;47.30
8888;DHT22;4480;52.370;9.748;2023-06-10T11:56:31;28.70;46.80
8888;DHT22;4480;52.370;9.748;2023-06-10T11:58:59;29.10;45.90
8888;DHT22;4480;52.370;9.748;2023-06-10T12:01:30;29.50;44.90
8888;DHT22;4480;52.370;9.748;2023-06-10T12:04:01;29.90;44.00
8888;DHT22;4480;52.370;9.748;2023-06-10T12:06:37;30.20;43.30
8888;DHT22;4480;52.370;9.748;2023-06-10T12:09:03;30.50;42.70
8888;DHT22;4480;52.370;9.748;2023-06-10T12:11:31;30.90;42.30
8888;DHT22;4480;52.370;9.748;2023-06-10T12:13:58;31.00;41.80
8888;DHT22;4480;52.370;9.748;2023-06-10T12:16:24;31.20;41.40
8888;DHT22;4480;52.370;9.748;2023-06-10T12:19:02;31.30;40.80
8888;DHT22;4480;52.370;9.748;2023-06-10T12:21:30;31.40;40.30
8888;DHT22;4480;52.370;9.748;2023-06-10T12:24:02;31.40;40.20
8888;DHT22;4480;52.370;9.748;2023-06-10T12:26:40;31.60;40.10
8888;DHT22;4480;52.370;9.748;2023-06-10T12:29:18;31.90;39.80
8888;DHT22;4480;52.370;9.748;2023-06-10T12:31:53;32.20;39.30
8888;DHT22;4480;52.370;9.748;2023-06-10T12:34:28;32.30;38.60
8888;DHT22;4480;52.370;9.748;2023-06-10T12:36:55;32.00;38.30
8888;DHT22;4480;52.370;9.748;2023-06-10T12:39:22;31.90;38.40
8888;DHT22;4480;52.370;9.748;2023-06-10T12:41:49;31.70;38.60
8888;DHT22;4480;52.370;9.748;2023-06-10T12:44:17;31.40;39.00
8888;DHT22;4480;52.370;9.748;2023-06-10T12:46:44;31.00;39.50
8888;DHT22;4480;52.370;9.748;2023-06-10T12:49:20;30.50;40.20
8888;DHT22;4480;52.370;9.748;2023-06-10T12:51:47;30.20;41.00
8888;DHT22;4480;52.370;9.748;2023-06-10T12:54:14;30.10;41.40
8888;DHT22;4480;52.370;9.748;2023-06-10T12:56:41;30.10;41.50
8888;DHT22;4480;52.370;9.748;2023-06-10T12:59:08;30.10;41.50
8888;DHT22;4480;52.370;9.748;2023-06-10T13:01:34;30.00;41.50
8888;DHT22;4480;52.370;9.748;2023-06-10T13:04:01;29.90;41.70
8888;DHT22;4480;52.370;9.748;2023-06-10T13:06:29;29.80;41.70
8888;DHT22;4480;52.370;9.748;2023-06-10T13:08:57;29.80;41.80
8888;DHT22;4480;52.370;9.748;2023-06-10T13:11:24;29.80;41.80
8888;DHT22;4480;52.370;9.748;2023-06-10T13:13:51;29.90;42.00
8888;DHT22;4480;52.370;9.748;2023-06-10T13:16:18;29.90;41.50
8888;DHT22;4480;52.370;9.748;2023-06-10T13:18:44;29.80;41.40
8888;DHT22;4480;52.370;9.748;2023-06-10T13:21:11;29.80;41.30
8888;DHT22;4480;52.370;9.748;2023-06-10T13:23:39;29.90;41.40
8888;DHT22;4480;52.370;9.748;2023-06-10T13:26:06;30.00;41.30
8888;DHT22;4480;52.370;9.748;2023-06-10T13:28:33;30.10;41.20
8888;DHT22;4480;52.370;9.748;2023-06-10T13:31:00;30.20;41.00
8888;DHT22;4480;52.370;9.748;2023-06-10T13:33:26;30.30;40.80
8888;DHT22;4480;52.370;9.748;2023-06-10T13:35:53;30.40;40.60
8888;DHT22;4480;52.370;9.748;2023-06-10T13:38:20;30.50;40.50
8888;DHT22;4480;52.370;9.748;2023-06-10T13:40:48;30.40;40.30
8888;DHT22;4480;52.370;9.748;2023-06-10T13:43:16;30.40;40.30
8888;DHT22;4480;52.370;9.748;2023-06-10T13:45:43;30.50;40.10
8888;DHT22;4480;52.370;9.748;2023-06-10T13:48:10;30.50;39.40
8888;DHT22;4480;52.370;9.748;2023-06-10T13:50:37;30.40;39.30
8888;DHT22;4480;52.370;9.748;2023-06-10T13:53:04;30.40;39.40
8888;DHT22;4480;52.370;9.748;2023-06-10T13:55:31;30.30;39.60
8888;DHT22;4480;52.370;9.748;2023-06-10T13:57:59;30.20;39.90
8888;DHT22;4480;52.370;9.748;2023-06-10T14:00:26;30.10;40.10
8888;DHT22;4480;52.370;9.748;2023-06-10T14:02:52;30.10;40.40
8888;DHT22;4480;52.370;9.748;2023-06-10T14:05:19;30.00;40.40
8888;DHT22;4480;52.370;9.748;2023-06-10T14:07:46;29.90;40.50
8888;DHT22;4480;52.370;9.748;2023-06-10T14:10:13;30.00;40.40
8888;DHT22;4480;52.370;9.748;2023-06-10T14:12:40;30.00;40.10
8888;DHT22;4480;52.370;9.748;2023-06-10T14:15:09;30.10;39.90
8888;DHT22;4480;52.370;9.748;2023-06-10T14:17:36;30.20;39.90
8888;DHT22;4480;52.370;9.748;2023-06-10T14:20:03;30.30;39.70
8888;DHT22;4480;52.370;9.748;2023-06-10T14:22:30;30.40;39.70
8888;DHT22;4480;52.370;9.748;2023-06-10T14:24:57;30.60;39.50
8888;DHT22;4480;52.370;9.748;2023-06-10T14:27:24;30.50;39.00
8888;DHT22;4480;52.370;9.748;2023-06-10T14:29:51;30.50;39.00
8888;DHT22;4480;52.370;9.748;2023-06-10T14:32:19;30.40;39.10
8888;DHT22;4480;52.370;9.748;2023-06-10T14:34:46;30.50;39.10
8888;DHT22;4480;52.370;9.748;2023-06-10T14:37:13;30.30;39.10
8888;DHT22;4480;52.370;9.748;2023-06-10T14:39:40;30.20;39.30
8888;DHT22;4480;52.370;9.748;2023-06-10T14:42:07;30.30;39.60
8888;DHT22;4480;52.370;9.748;2023-06-10T14:44:34;30.20;39.60
8888;DHT22;4480;52.370;9.748;2023-06-10T14:47:00;30.20;39.80
8888;DHT22;4480;52.370;9.748;2023-06-10T14:49:29;30.10;39.80
8888;DHT22;4480;52.370;9.748;2023-06-10T14:51:56;30.10;39.90
8888;DHT22;4480;52.370;9.748;2023-06-10T14:54:23;30.10;40.10
8888;DHT22;4480;52.370;9.748;2023-06-10T14:56:49;30.00;40.30
8888;DHT22;4480;52.370;9.748;2023-06-10T14:59:16;30.00;40.60
8888;DHT22;4480;52.370;9.748;2023-06-10T15:01:43;30.00;40.50
8888;DHT22;4480;52.370;9.748;2023-06-10T15:04:10;30.20;40.20
8888;DHT22;4480;52.370;9.748;2023-06-10T15:06:38;30.20;39.80
8888;DHT22;4480;52.370;9.748;2023-06-10T15:09:05;30.20;39.50
8888;DHT22;4480;52.370;9.748;2023-06-10T15:11:32;30.30;39.50
8888;DHT22;4480;52.370;9.748;2023-06-10T15:13:58;30.50;39.40
8888;DHT22;4480;52.370;9.748;2023-06-10T15:16:25;30.50;39.10
8888;DHT22;4480;52.370;9.748;2023-06-10T15:18:52;30.40;39.00
8888;DHT22;4480;52.370;9.748;2023-06-10T15:21:19;30.40;39.00
8888;DHT22;4480;52.370;9.748;2023-06-10T15:23:47;30.40;39.10
8888;DHT22;4480;52.370;9.748;2023-06-10T15:26:13;30.30;39.00
8888;DHT22;4480;52.370;9.748;2023-06-10T15:28:40;30.40;39.00
8888;DHT22;4480;52.370;9.748;2023-06-10T15:31:07;30.50;39.10
8888;DHT22;4480;52.370;9.748;2023-06-10T15:33:34;30.50;38.70
8888;DHT22;4480;52.370;9.748;2023-06-10T15:36:01;30.50;38.50
8888;DHT22;4480;52.370;9.748;2023-06-10T15:38:28;30.50;38.50
8888;DHT22;4480;52.370;9.748;2023-06-10T15:40:56;30.40;38.30
8888;DHT22;4480;52.370;9.748;2023-06-10T15:43:23;30.40;38.20
8888;DHT22;4480;52.370;9.748;2023-06-10T15:45:50;30.40;38.20
8888;DHT22;4480;52.370;9.748;2023-06-10T15:48:17;30.40;38.30
8888;DHT22;4480;52.370;9.748;2023-06-10T15:50:44;30.50;38.40
8888;DHT22;4480;52.370;9.748;2023-06-10T15:53:11;30.70;38.40
8888;DHT22;4480;52.370;9.748;2023-06-10T15:55:37;30.90;38.20
8888;DHT22;4480;52.370;9.748;2023-06-10T15:58:06;30.90;38.10
8888;DHT22;4480;52.370;9.748;2023-06-10T16:00:32;30.90;38.00
8888;DHT22;4480;52.370;9.748;2023-06-10T16:02:59;30.90;37.80
8888;DHT22;4480;52.370;9.748;2023-06-10T16:05:26;30.70;37.90
8888;DHT22;4480;52.370;9.748;2023-06-10T16:07:53;30.70;38.10
8888;DHT22;4480;52.370;9.748;2023-06-10T16:10:20;30.70;38.20